< Cyclone 198007 1980 Season Cyclone 198009 >
Cyclone 198008 (DEAN)
General InformationTrack Information on Google Maps || ResourceGoogle EarthGE AnimationAtom FeedGeoJSON
Detalied Best Track (Time Zone = UTC)
Year Month Day Hour Lat. Long. Pressure (hPa) Wind (kt) Class Image Chart
1980 1 27 00 -10.4 129.4 1005 0 0 -- --
1980 1 27 06 -10.7 129.2 1002 0 0 -- --
1980 1 27 12 -10.9 129.0 1000 0 0 -- --
1980 1 27 18 -11.1 128.8 997 0 0 -- --
1980 1 28 00 -11.3 128.4 994 0 0 -- --
1980 1 28 06 -11.4 127.6 992 0 0 -- --
1980 1 28 12 -11.4 126.2 990 0 0 -- --
1980 1 28 18 -11.6 124.6 988 0 0 -- --
1980 1 29 00 -11.8 123.2 986 0 0 -- --
1980 1 29 06 -12.2 121.1 984 0 0 -- --
1980 1 29 12 -12.6 120.8 982 0 0 -- --
1980 1 29 18 -13.0 119.9 980 0 0 -- --
1980 1 30 00 -13.4 119.0 978 0 0 -- --
1980 1 30 06 -14.0 118.0 975 0 0 -- --
1980 1 30 12 -14.7 117.2 972 0 0 -- --
1980 1 30 15 -15.1 117.0 970 0 0 -- --
1980 1 30 18 -15.5 117.0 968 0 0 -- --
1980 1 31 00 -15.8 117.1 964 0 0 -- --
1980 1 31 06 -16.5 117.4 958 0 0 -- --
1980 1 31 12 -17.6 117.9 950 0 0 -- --
1980 1 31 18 -18.6 118.4 942 0 0 -- --
1980 2 1 00 -19.8 118.9 930 0 0 -- --
1980 2 1 06 -21.3 119.3 955 0 0 -- --
1980 2 1 12 -22.4 119.5 974 0 0 -- --
1980 2 1 18 -23.1 120.1 980 0 0 -- --
1980 2 2 00 -23.6 120.6 985 0 0 -- --
1980 2 2 06 -23.9 121.0 989 0 0 -- --
1980 2 2 12 -24.1 121.4 991 0 0 -- --
1980 2 2 18 -24.3 121.8 993 0 0 -- --
1980 2 3 06 -24.7 123.1 996 0 0 -- --
1980 2 3 12 -24.9 124.3 997 0 0 -- --
1980 2 3 18 -24.8 125.7 998 0 0 -- --
1980 2 4 00 -24.2 126.2 999 0 0 -- --
< Cyclone 198007 1980 Season Cyclone 198009 >

Help